Flight Track Log - Related Links

Times and Time Zones

All times are in EDT time to prevent confusion due to time zone crossing. See the N68622 flight status page for this flight to view local times or setup timezone preferences in your user account.

Time Position Orientation Groundspeed Altitude Reporting Facility
EDT Latitude Longitude Course Direction KTS MPH feet Rate Location/Type
07:38PM 41.9561 -72.5847 225° Southwest 181 208 4,500  Level Boston Center
07:39PM 41.9486 -72.5947 225° Southwest 177 204 4,400  Descending Boston Center
07:39PM 41.9206 -72.6328 225° Southwest 179 206 4,500 49 Climbing Boston Center
07:41PM 41.8767 -72.6883 223° Southwest 179 206 4,500  Level Boston Center
07:41PM 41.8494 -72.7286 228° Southwest 184 212 4,500  Level Boston Center
07:42PM 41.8414 -72.7386 223° Southwest 181 208 4,500  Level Boston Center
07:43PM 41.8142 -72.7764 226° Southwest 182 209 4,500  Level Boston Center
07:43PM 41.8064 -72.7875 227° Southwest 181 208 4,500  Level Boston Center
07:44PM 41.7786 -72.8242 225° Southwest 184 212 4,500  Level Boston Center
07:44PM 41.7681 -72.8408 230° Southwest 182 209 4,500 -98 Level Boston Center
07:45PM 41.7408 -72.8825 229° Southwest 189 217 4,400  Descending Boston Center
07:45PM 41.7333 -72.8931 226° Southwest 189 217 4,500 98 Climbing Boston Center
07:46PM 41.7031 -72.9294 222° Southwest 186 214 4,500  Level Boston Center
07:46PM 41.6947 -72.9394 222° Southwest 187 215 4,500 -98 Level Boston Center
07:47PM 41.6650 -72.9792 225° Southwest 184 212 4,400  Descending Boston Center
07:47PM 41.6597 -72.9886 233° Southwest 186 214 4,500 102 Climbing Boston Center
07:48PM 41.6294 -73.0267 223° Southwest 181 208 4,500  Level Boston Center
07:48PM 41.6206 -73.0394 227° Southwest 184 212 4,500 76 Level Boston Center
07:49PM 41.5836 -73.0858 223° Southwest 183 211 4,600 -48 Climbing Boston Center
07:50PM 41.5469 -73.1342 225° Southwest 185 213 4,400 -49 Descending Boston Center
07:51PM 41.5131 -73.1864 229° Southwest 186 214 4,500 49 Climbing Boston Center
07:52PM 41.4792 -73.2369 228° Southwest 186 214 4,500  Level Boston Center
07:53PM 41.4408 -73.2869 224° Southwest 182 209 4,500  Level Boston Center
07:54PM 41.4064 -73.3339 226° Southwest 180 207 4,500  Level Boston Center
07:55PM 41.3703 -73.3853 227° Southwest 180 207 4,500  Level Boston Center
07:56PM 41.3353 -73.4344 227° Southwest 181 208 4,500  Level Boston Center
07:57PM 41.3003 -73.4819 226° Southwest 181 208 4,500  Level Boston Center
07:58PM 41.2656 -73.5278 225° Southwest 180 207 4,500  Level Boston Center
07:59PM 41.2311 -73.5767 227° Southwest 179 206 4,500  Level Boston Center
08:00PM 41.1944 -73.6278 226° Southwest 179 206 4,500 47 Level Boston Center
08:01PM 41.1500 -73.6833 223° Southwest 175 201 4,600 48 Climbing New York TRACON
08:02PM 41.1167 -73.7167 217° Southwest 173 199 4,600  Level New York TRACON
08:03PM 41.0833 -73.7667 229° Southwest 177 204 4,600  Level New York TRACON
08:04PM 41.0500 -73.8167 229° Southwest 174 200 4,600  Level New York TRACON
08:05PM 41.0167 -73.8500 217° Southwest 176 203 4,600  Level New York TRACON
08:06PM 40.9833 -73.8833 217° Southwest 180 207 4,600  Level New York TRACON
08:07PM 40.9333 -73.9167 207° Southwest 178 205 4,600 -40 Level New York TRACON
08:09PM 40.8572 -73.9478 197° South 180 207 4,500 -38 Descending New York Center
08:10PM 40.8108 -73.9758 205° Southwest 181 208 4,500  Level New York Center
08:11PM 40.7664 -74.0056 207° Southwest 175 201 4,500 -48 Level New York Center
08:12PM 40.7144 -74.0258 196° South 176 203 4,400 -48 Descending New York Center
08:13PM 40.6658 -74.0447 196° South 181 208 4,400  Level New York Center
08:14PM 40.6142 -74.0625 195° South 181 208 4,400 49 Level New York Center
08:15PM 40.5703 -74.0936 208° Southwest 180 207 4,500 49 Climbing New York Center
08:16PM 40.5250 -74.1231 206° Southwest 183 211 4,500  Level New York Center
08:17PM 40.4758 -74.1564 207° Southwest 183 211 4,500 -48 Level New York Center
08:18PM 40.4317 -74.1892 209° Southwest 183 211 4,400 -48 Descending New York Center
08:19PM 40.3844 -74.2211 207° Southwest 182 209 4,400  Level New York Center
08:20PM 40.3600 -74.2800 241° Southwest 178 205 4,400  Level New York Center
08:21PM 40.3403 -74.3386 246° West 178 205 4,400  Level New York Center
08:22PM 40.3208 -74.4028 248° West 177 204 4,400  Level New York Center
08:23PM 40.2972 -74.4589 241° Southwest 177 204 4,400  Level New York Center
08:24PM 40.2714 -74.5142 239° Southwest 175 201 4,400 -195 Level New York Center
08:25PM 40.2442 -74.5717 238° Southwest 175 201 4,000 -484 Descending New York Center
08:26PM 40.2222 -74.6281 243° Southwest 176 203 3,400 -629 Descending New York Center
08:27PM 40.2058 -74.6867 250° West 175 201 2,700 -435 Descending New York Center
08:28PM 40.1883 -74.7444 248° West 167 192 2,500 -97 Descending New York Center
08:29PM 40.1747 -74.7936 250° West 147 169 2,500 -97 Level New York Center
08:30PM 40.1686 -74.8503 262° West 143 165 2,300 -194 Descending New York Center
08:31PM 40.1578 -74.9019 255° West 144 166 2,100 -439 Descending New York Center
08:32PM 40.1328 -74.9394 229° Southwest 131 151 1,400 -703 Descending New York Center
08:33PM 40.1167 -74.9667 232° Southwest 137 158 800 -720 Descending Philadelphia TRACON
08:36PM 40.0819 -75.0106 237° Southwest  Level Estimated

Login

Don't have an account? Register now (free) for customized features, flight alerts, and more!